Torm Skagen — 3EEZ7 — position and weather

sailwx.info

Track history (hours):
 
Tides and Currents Weather Stations Pressure Air Temp Water Temp Dewpoint Dewpoint Depression Visibility Wind Speed Wind Dir Waves Ship Positions

Torm Skagen

Last reported at 2018-May-18 12:28 UTC. Time now 2018-May-20 09:43 UTC.
Position N 29°60' W 090°26'.

Length 225 m; beam 32.3 m.

Type: Cargo ship. MMSI: 371976000.

Date/timePositionNaut miles runAvg speedWind from/ knotsBaromVisibWave heightAir tempDewpointWater temp
2018-May-18 12:28N 29°60' W 090°26'0 0.0
2018-May-18 11:55N 29°60' W 090°26'0 0.0
2018-May-18 11:28N 29°60' W 090°26'0 0.0
2018-May-18 10:10N 29°60' W 090°26'0 0.0
2018-May-18 09:52N 29°60' W 090°26'0 0.0
2018-May-18 08:37N 29°60' W 090°26'0 0.0
2018-May-18 08:19N 29°60' W 090°26'0 0.0
2018-May-17 12:46N 29°60' W 090°26'0 0.0
2018-May-17 11:34N 29°60' W 090°26'0 0.0
2018-May-17 09:52N 29°60' W 090°26'0 0.0
2018-May-17 08:43N 29°60' W 090°26'0 0.0
2018-May-17 08:16N 29°60' W 090°26'0 0.0
2018-May-17 07:52N 29°60' W 090°26'0 0.0
2018-May-17 07:16N 29°60' W 090°26'0 0.0
2018-May-17 06:55N 29°60' W 090°26'0 0.0
2018-May-17 05:37N 29°60' W 090°26'0 0.0
2018-May-17 04:46N 29°60' W 090°26'0 0.0
2018-May-17 04:22N 29°60' W 090°26'0 0.0
2018-May-17 03:52N 29°60' W 090°26'5 0.2
2018-May-16 02:31N 29°57' W 090°23'13 0.4
2018-May-14 13:39N 30°03' W 090°36'310.8
2018-May-14 13:21N 30°03' W 090°40'513.7
2018-May-14 13:00N 30°01' W 090°44'5 4.3
2018-May-14 11:53N 30°00' W 090°50'0 0.0
2018-May-14 10:35N 30°00' W 090°50'0 0.0
2018-May-14 10:29N 30°00' W 090°50'0 0.0
2018-May-14 09:56N 30°00' W 090°50'0 0.0
2018-May-14 09:26N 30°00' W 090°50'0 0.0
2018-May-14 08:59N 30°00' W 090°50'0 0.0
2018-May-14 08:14N 30°00' W 090°50'0 0.0
2018-May-14 07:59N 30°00' W 090°50'0 0.0
2018-May-14 04:50N 30°00' W 090°50'  
2018-May-09 13:38N 30°00' W 090°47'0 2.1
2018-May-09 13:30N 30°00' W 090°47'3 6.0
2018-May-09 13:00N 30°01' W 090°43'4 7.5
2018-May-09 12:30N 30°03' W 090°40'3 6.1
2018-May-09 12:00N 30°02' W 090°37'3 5.4
2018-May-09 11:30N 30°03' W 090°34'3 6.5
2018-May-09 11:00N 30°03' W 090°30'3 5.4
2018-May-09 10:25N 30°00' W 090°28'6 5.8
2018-May-09 09:23N 29°57' W 090°23'4 5.8
2018-May-09 08:37N 29°57' W 090°18'3 6.8
2018-May-09 08:12N 29°58' W 090°15'  
Track history (hours):
 
Tides and Currents Weather Stations Pressure Air Temp Water Temp Dewpoint Dewpoint Depression Visibility Wind Speed Wind Dir Waves Ship Positions

Torm Skagen

Last reported at 2018-May-18 12:28 UTC. Time now 2018-May-20 09:43 UTC.
Position N 29°60' W 090°26'.

Length 225 m; beam 32.3 m.

Type: Cargo ship. MMSI: 371976000.

Date/timePositionNaut miles runAvg speedWind from/ knotsBaromVisibWave heightAir tempDewpointWater temp
2018-May-18 12:28N 29°60' W 090°26'0 0.0
2018-May-18 11:55N 29°60' W 090°26'0 0.0
2018-May-18 11:28N 29°60' W 090°26'0 0.0
2018-May-18 10:10N 29°60' W 090°26'0 0.0
2018-May-18 09:52N 29°60' W 090°26'0 0.0
2018-May-18 08:37N 29°60' W 090°26'0 0.0
2018-May-18 08:19N 29°60' W 090°26'0 0.0
2018-May-17 12:46N 29°60' W 090°26'0 0.0
2018-May-17 11:34N 29°60' W 090°26'0 0.0
2018-May-17 09:52N 29°60' W 090°26'0 0.0
2018-May-17 08:43N 29°60' W 090°26'0 0.0
2018-May-17 08:16N 29°60' W 090°26'0 0.0
2018-May-17 07:52N 29°60' W 090°26'0 0.0
2018-May-17 07:16N 29°60' W 090°26'0 0.0
2018-May-17 06:55N 29°60' W 090°26'0 0.0
2018-May-17 05:37N 29°60' W 090°26'0 0.0
2018-May-17 04:46N 29°60' W 090°26'0 0.0
2018-May-17 04:22N 29°60' W 090°26'0 0.0
2018-May-17 03:52N 29°60' W 090°26'5 0.2
2018-May-16 02:31N 29°57' W 090°23'13 0.4
2018-May-14 13:39N 30°03' W 090°36'310.8
2018-May-14 13:21N 30°03' W 090°40'513.7
2018-May-14 13:00N 30°01' W 090°44'5 4.3
2018-May-14 11:53N 30°00' W 090°50'0 0.0
2018-May-14 10:35N 30°00' W 090°50'0 0.0
2018-May-14 10:29N 30°00' W 090°50'0 0.0
2018-May-14 09:56N 30°00' W 090°50'0 0.0
2018-May-14 09:26N 30°00' W 090°50'0 0.0
2018-May-14 08:59N 30°00' W 090°50'0 0.0
2018-May-14 08:14N 30°00' W 090°50'0 0.0
2018-May-14 07:59N 30°00' W 090°50'0 0.0
2018-May-14 04:50N 30°00' W 090°50'  
2018-May-09 13:38N 30°00' W 090°47'0 2.1
2018-May-09 13:30N 30°00' W 090°47'3 6.0
2018-May-09 13:00N 30°01' W 090°43'4 7.5
2018-May-09 12:30N 30°03' W 090°40'3 6.1
2018-May-09 12:00N 30°02' W 090°37'3 5.4
2018-May-09 11:30N 30°03' W 090°34'3 6.5
2018-May-09 11:00N 30°03' W 090°30'3 5.4
2018-May-09 10:25N 30°00' W 090°28'6 5.8
2018-May-09 09:23N 29°57' W 090°23'4 5.8
2018-May-09 08:37N 29°57' W 090°18'3 6.8
2018-May-09 08:12N 29°58' W 090°15'  

Dump ship's entire track history